Mombasa, Kenya

11:27 PM EAT on April 23, 2017 (GMT +0300)
Moi | | Change Station

Elev 180 ft 4.03 °S, 39.62 °E | Updated 27 minutes ago

Scattered Clouds
Scattered Clouds
82 °F
Feels Like 90 °F
N
8
Wind Variable Wind from South

Today
High -- | Low -- °F
--% Chance of Precip.
Yesterday
High -- | Low -- °F
Precip. -- in
Pressure 29.92 in
Visibility 6.2 miles
Clouds Scattered Clouds 2300 ft
Heat Index 90 °F
Dew Point 75 °F
Humidity 79%
Rainfall 0.00 in
Snow Depth Not available.
6:20 AM 6:19 PM
Waning Crescent, 10% visible
METAR HKMO 232000Z 18007KT 9999 SCT023 28/24 Q1013 NOSIG
Pressure 29.92 in
Visibility 6.2 miles
Clouds Scattered Clouds 2300 ft
Heat Index 90 °F
Dew Point 75 °F
Humidity 79%
Rainfall 0.00 in
Snow Depth Not available.
6:20 AM 6:19 PM
Waning Crescent, 10% visible
METAR HKMO 232000Z 18007KT 9999 SCT023 28/24 Q1013 NOSIG

Get Severe Weather Alerts

Thanks for signing up!

Be on the lookout for a verification email in your inbox.

You'll start receiving the daily forecast at 8 AM.

×

10-Day Weather Forecast

No radar image for this location.
×

Almanac

Astronomy

Apr. 23, 2017 Rise Set
Actual Time
Civil Twilight
Nautical Twilight
Astronomical Twilight
Moon
Length of Visible Light
Length of Day
Tomorrow will be .
, % of the Moon is Illuminated

Today's Extremes

Country Highs Country Lows

Community

WunderPhotos

WunderBlog® & News

Nearby

Air Quality

  Air Quality AQ Index Pollutant
Not available.

Snow Depth

Station Depth Elevation

Earthquake Activity

City Distance Mag. Time & Date
Minimum magnitude displayed is 2.5.

Coastal Water Temperatures

Place Temperature

Stations

Nearby Weather Stations

Station Location Temp. Windchill Dew Point Humidity Wind Precip. Elev Updated Type